Time;durP1;ratioP1;P1;durP2;ratioP2;P2;SDS_P1;SDS_P2;PMS_P1;PMS_P2;Temp;Humidity;BMP_temperature;BMP_pressure;BME280_temperature;BME280_humidity;BME280_pressure;Samples;Min_cycle;Max_cycle;Signal;HPM_P1;HPM_P2
2023/11/05 00:04:50;;;;;;;1999.90;999.90;;;;;;;13.54;91.09;97070.84;10376983;28;20053;-65
2023/11/05 00:09:52;;;;;;;1999.90;999.90;;;;;;;13.22;91.79;97069.72;10376389;28;20484;-65
2023/11/05 00:14:55;;;;;;;1999.90;999.90;;;;;;;13.37;90.70;97059.91;10376894;28;20054;-65
2023/11/05 00:19:57;;;;;;;1999.90;999.90;;;;;;;13.73;90.19;97058.78;10376444;28;20046;-65
2023/11/05 00:25:00;;;;;;;1999.90;999.90;;;;;;;13.65;88.31;97063.41;10376475;28;20069;-65
2023/11/05 00:30:03;;;;;;;1999.90;999.90;;;;;;;13.17;89.05;97051.09;10376307;28;20092;-65
2023/11/05 00:35:06;;;;;;;1999.90;999.90;;;;;;;13.36;89.37;97042.53;10375471;28;20096;-65
2023/11/05 00:40:09;;;;;;;1999.90;999.90;;;;;;;13.24;88.71;97041.44;10375313;28;20056;-65
2023/11/05 00:45:11;;;;;;;1999.90;999.90;;;;;;;13.18;88.23;97040.41;10375778;28;20060;-65
2023/11/05 00:50:14;;;;;;;1999.90;999.90;;;;;;;13.43;88.02;97024.16;10375624;28;20081;-65
2023/11/05 00:55:19;;;;;;;1999.90;999.90;;;;;;;13.51;86.75;97023.16;10373725;28;20413;-65
2023/11/05 01:00:21;;;;;;;1999.90;999.90;;;;;;;13.52;87.66;97015.06;10358184;28;20461;-65
2023/11/05 01:05:28;;;;;;;1999.90;999.90;;;;;;;13.84;86.82;97010.06;10375254;28;20054;-65
2023/11/05 01:10:31;;;;;;;1999.90;999.90;;;;;;;14.07;85.57;97011.47;10374325;28;20504;-65
2023/11/05 01:15:33;;;;;;;1999.90;999.90;;;;;;;13.88;85.70;97016.53;10374323;28;20409;-65
2023/11/05 01:20:35;;;;;;;1999.90;999.90;;;;;;;14.19;85.43;97009.03;10374557;28;20141;-65
2023/11/05 01:25:38;;;;;;;1999.90;999.90;;;;;;;14.17;83.72;97005.81;10374707;28;20049;-65
2023/11/05 01:30:40;;;;;;;1999.90;999.90;;;;;;;13.91;84.97;97002.16;10373979;28;20054;-65
2023/11/05 01:35:43;;;;;;;1999.90;999.90;;;;;;;14.27;85.21;96998.31;10380933;22;20052;-65
2023/11/05 01:40:45;;;;;;;1999.90;999.90;;;;;;;13.88;85.91;96994.69;10373377;28;20049;-65
2023/11/05 01:45:48;;;;;;;1999.90;999.90;;;;;;;14.18;83.29;96976.66;10373836;28;20134;-65
2023/11/05 01:50:50;;;;;;;1999.90;999.90;;;;;;;14.48;83.76;96966.47;10374299;28;20120;-65
2023/11/05 01:55:52;;;;;;;1999.90;999.90;;;;;;;14.47;84.23;96969.31;10372364;28;20386;-65
2023/11/05 02:00:55;;;;;;;1999.90;999.90;;;;;;;14.35;86.11;96965.72;10372308;28;20416;-65
2023/11/05 02:05:58;;;;;;;1999.90;999.90;;;;;;;14.48;84.61;96963.06;10356799;28;20050;-65
2023/11/05 02:11:00;;;;;;;1999.90;999.90;;;;;;;14.45;83.21;96966.91;10372227;28;20100;-65
2023/11/05 02:16:03;;;;;;;1999.90;999.90;;;;;;;13.94;85.86;96959.69;10373167;28;20420;-65
2023/11/05 02:21:06;;;;;;;1999.90;999.90;;;;;;;13.72;90.91;96957.28;10373093;28;20053;-65
2023/11/05 02:26:09;;;;;;;1999.90;999.90;;;;;;;14.22;86.89;96956.84;10378936;28;20053;-65
2023/11/05 02:31:12;;;;;;;1999.90;999.90;;;;;;;13.97;86.42;96946.16;10379630;28;20113;-65
2023/11/05 02:36:15;;;;;;;1999.90;999.90;;;;;;;14.18;88.11;96949.56;10380286;28;20440;-65
2023/11/05 02:41:17;;;;;;;1999.90;999.90;;;;;;;13.72;90.54;96944.13;10379316;28;20053;-65
2023/11/05 02:46:19;;;;;;;1999.90;999.90;;;;;;;13.87;93.41;96941.31;10378551;28;20460;-65
2023/11/05 02:51:22;;;;;;;1999.90;999.90;;;;;;;13.67;90.50;96940.50;10379981;28;20465;-65
2023/11/05 02:56:24;;;;;;;1999.90;999.90;;;;;;;13.67;89.83;96941.31;10379813;28;20046;-65
2023/11/05 03:01:27;;;;;;;1999.90;999.90;;;;;;;14.04;89.34;96928.53;10377898;28;20073;-66
2023/11/05 03:06:30;;;;;;;1999.90;999.90;;;;;;;14.19;89.79;96928.31;10379493;28;20103;-65
2023/11/05 03:11:32;;;;;;;1999.90;999.90;;;;;;;14.14;88.50;96914.97;10378690;28;20504;-64
2023/11/05 03:16:40;;;;;;;1999.90;999.90;;;;;;;14.55;88.50;96913.81;10379033;28;20046;-65
2023/11/05 03:21:42;;;;;;;1999.90;999.90;;;;;;;13.67;92.94;96911.59;10377771;28;20046;-65
2023/11/05 03:26:45;;;;;;;1999.90;999.90;;;;;;;14.26;88.46;96915.16;10378739;28;20045;-65
2023/11/05 03:31:51;;;;;;;1999.90;999.90;;;;;;;14.25;91.48;96913.50;10377951;28;20397;-65
2023/11/05 03:36:53;;;;;;;1999.90;999.90;;;;;;;13.65;93.68;96914.41;10377401;28;20120;-65
2023/11/05 03:41:55;;;;;;;1999.90;999.90;;;;;;;13.82;90.45;96912.19;10376991;28;20054;-65
2023/11/05 03:46:58;;;;;;;1999.90;999.90;;;;;;;14.36;87.76;96920.78;10377942;28;20046;-65
2023/11/05 03:52:01;;;;;;;1999.90;999.90;;;;;;;14.53;86.51;96920.34;10377663;28;20058;-65
2023/11/05 03:57:03;;;;;;;1999.90;999.90;;;;;;;14.29;89.72;96925.25;10375653;28;20145;-65
2023/11/05 04:02:06;;;;;;;1999.90;999.90;;;;;;;14.59;86.87;96925.59;10360114;28;20050;-65
2023/11/05 04:07:08;;;;;;;1999.90;999.90;;;;;;;14.04;90.46;96923.28;10376516;28;20482;-65
2023/11/05 04:12:11;;;;;;;1999.90;999.90;;;;;;;14.45;89.37;96924.00;10376373;28;20517;-65
2023/11/05 04:17:13;;;;;;;1999.90;999.90;;;;;;;14.57;87.05;96911.78;10377184;28;20053;-65
2023/11/05 04:22:15;;;;;;;1999.90;999.90;;;;;;;14.15;93.14;96916.56;10376650;28;20057;-65
2023/11/05 04:27:18;;;;;;;1999.90;999.90;;;;;;;14.38;88.29;96907.41;10376421;28;20056;-65
2023/11/05 04:32:20;;;;;;;1999.90;999.90;;;;;;;14.41;90.65;96913.06;10374503;28;20479;-65
2023/11/05 04:37:23;;;;;;;1999.90;999.90;;;;;;;14.52;87.25;96913.44;10375708;28;20547;-65
2023/11/05 04:42:25;;;;;;;1999.90;999.90;;;;;;;13.89;91.95;96912.19;10375318;28;20073;-65
2023/11/05 04:47:28;;;;;;;1999.90;999.90;;;;;;;14.26;91.28;96921.22;10375792;28;20120;-65
2023/11/05 04:52:30;;;;;;;1999.90;999.90;;;;;;;14.19;93.14;96923.06;10375018;28;20444;-65
2023/11/05 04:57:33;;;;;;;1999.90;999.90;;;;;;;13.97;91.13;96927.75;10374695;28;20481;-65
2023/11/05 05:02:35;;;;;;;1999.90;999.90;;;;;;;13.79;92.42;96933.63;10375294;28;20125;-65
2023/11/05 05:07:38;;;;;;;1999.90;999.90;;;;;;;14.43;91.99;96929.44;10375170;28;20052;-65
2023/11/05 05:12:40;;;;;;;1999.90;999.90;;;;;;;14.30;92.15;96932.13;10374462;28;20520;-65
2023/11/05 05:17:43;;;;;;;1999.90;999.90;;;;;;;14.16;93.48;96930.53;10374795;28;20041;-65
2023/11/05 05:22:45;;;;;;;1999.90;999.90;;;;;;;14.94;86.09;96935.75;10374318;28;20050;-65
2023/11/05 05:27:48;;;;;;;1999.90;999.90;;;;;;;15.43;84.04;96946.63;10374819;28;20050;-65
2023/11/05 05:32:50;;;;;;;1999.90;999.90;;;;;;;14.61;85.96;96947.25;10374099;28;20056;-65
2023/11/05 05:37:53;;;;;;;1999.90;999.90;;;;;;;14.70;87.98;96942.56;10373180;28;20054;-65
2023/11/05 05:42:55;;;;;;;1999.90;999.90;;;;;;;14.82;90.15;96947.97;10373901;28;20050;-65
2023/11/05 05:47:57;;;;;;;1999.90;999.90;;;;;;;15.00;87.67;96948.09;10372643;28;20093;-65
2023/11/05 05:53:00;;;;;;;1999.90;999.90;;;;;;;15.18;84.64;96952.66;10374288;28;20050;-65
2023/11/05 05:58:03;;;;;;;1999.90;999.90;;;;;;;14.86;87.48;96959.69;10375993;28;20129;-65
2023/11/05 06:03:06;;;;;;;1999.90;999.90;;;;;;;14.85;87.67;96964.16;10380202;28;20386;-65
2023/11/05 06:08:08;;;;;;;1999.90;999.90;;;;;;;14.29;90.87;96973.41;10380673;28;20046;-66
2023/11/05 06:13:10;;;;;;;1999.90;999.90;;;;;;;14.94;90.25;96969.19;10380777;28;20053;-66
2023/11/05 06:18:13;;;;;;;1999.90;999.90;;;;;;;15.15;87.81;96976.81;10379563;28;20049;-66
2023/11/05 06:23:16;;;;;;;1999.90;999.90;;;;;;;14.56;91.58;96975.16;10380028;28;20057;-66
2023/11/05 06:28:18;;;;;;;1999.90;999.90;;;;;;;14.94;88.63;96975.25;10380416;28;20572;-66
2023/11/05 06:33:22;;;;;;;1999.90;999.90;;;;;;;14.84;91.13;96990.69;10380147;28;20489;-66
2023/11/05 06:38:24;;;;;;;1999.90;999.90;;;;;;;15.20;88.00;96991.97;10378839;28;20112;-66
2023/11/05 06:43:27;;;;;;;1999.90;999.90;;;;;;;15.36;85.20;96996.75;10378560;28;20485;-66
2023/11/05 06:48:31;;;;;;;1999.90;999.90;;;;;;;15.08;88.97;97001.53;10380276;28;20054;-66
2023/11/05 06:53:34;;;;;;;1999.90;999.90;;;;;;;14.76;90.27;97014.63;10378881;28;20133;-66
2023/11/05 06:58:36;;;;;;;1999.90;999.90;;;;;;;14.93;92.78;97023.72;10380277;28;20125;-66
2023/11/05 07:03:39;;;;;;;1999.90;999.90;;;;;;;14.82;89.78;97029.59;10378984;28;20516;-66
2023/11/05 07:08:42;;;;;;;1999.90;999.90;;;;;;;14.55;93.70;97037.53;10379173;28;20121;-66
2023/11/05 07:13:44;;;;;;;1999.90;999.90;;;;;;;15.07;89.81;97042.91;10379142;28;20408;-66
2023/11/05 07:18:47;;;;;;;1999.90;999.90;;;;;;;15.26;87.70;97051.72;10378386;28;20050;-65
2023/11/05 07:23:50;;;;;;;1999.90;999.90;;;;;;;15.14;89.40;97056.03;10378317;28;20081;-66
2023/11/05 07:28:52;;;;;;;1999.90;999.90;;;;;;;15.44;88.21;97063.44;10377553;28;20128;-66
2023/11/05 07:33:55;;;;;;;1999.90;999.90;;;;;;;15.49;87.04;97063.59;10378990;28;20046;-66
2023/11/05 07:38:57;;;;;;;1999.90;999.90;;;;;;;15.38;87.63;97072.97;10377573;28;20107;-66
2023/11/05 07:44:00;;;;;;;1999.90;999.90;;;;;;;15.22;90.49;97077.69;10377457;28;20468;-66
2023/11/05 07:49:04;;;;;;;1999.90;999.90;;;;;;;15.43;87.79;97083.69;10377307;28;20124;-66
2023/11/05 07:54:07;;;;;;;1999.90;999.90;;;;;;;15.06;90.51;97088.69;10377061;28;20054;-66
2023/11/05 07:59:10;;;;;;;1999.90;999.90;;;;;;;15.40;88.09;97099.94;10376825;28;20548;-66
2023/11/05 08:04:12;;;;;;;1999.90;999.90;;;;;;;15.50;91.98;97110.84;10360085;28;20056;-66
2023/11/05 08:09:14;;;;;;;1999.90;999.90;;;;;;;15.52;88.95;97119.34;10377091;28;20046;-66
2023/11/05 08:14:17;;;;;;;1999.90;999.90;;;;;;;15.52;89.49;97129.09;10375180;28;20511;-66
2023/11/05 08:19:19;;;;;;;1999.90;999.90;;;;;;;14.97;90.53;97145.25;10376517;28;20128;-66
2023/11/05 08:24:24;;;;;;;1999.90;999.90;;;;;;;14.78;92.64;97145.06;10374480;28;20045;-66
2023/11/05 08:29:27;;;;;;;1999.90;999.90;;;;;;;15.74;88.83;97153.31;10376315;28;20095;-66
2023/11/05 08:34:29;;;;;;;1999.90;999.90;;;;;;;15.75;88.59;97149.66;10376222;28;20053;-66
2023/11/05 08:39:32;;;;;;;1999.90;999.90;;;;;;;16.02;88.95;97168.00;10375299;28;20104;-66
2023/11/05 08:44:34;;;;;;;1999.90;999.90;;;;;;;15.86;86.53;97169.31;10375909;28;20052;-66
2023/11/05 08:49:36;;;;;;;1999.90;999.90;;;;;;;15.86;87.54;97182.50;10375054;28;20531;-66
2023/11/05 08:54:39;;;;;;;1999.90;999.90;;;;;;;15.96;84.11;97185.50;10375611;28;20050;-66
2023/11/05 08:59:41;;;;;;;1999.90;999.90;;;;;;;15.95;86.68;97195.25;10374713;28;20056;-66
2023/11/05 09:04:43;;;;;;;1999.90;999.90;;;;;;;15.30;90.44;97213.69;10375395;28;20054;-66
2023/11/05 09:09:46;;;;;;;1999.90;999.90;;;;;;;15.64;87.74;97224.16;10374547;28;20405;-66
2023/11/05 09:14:49;;;;;;;1999.90;999.90;;;;;;;16.13;84.57;97226.19;10375048;28;20050;-66
2023/11/05 09:19:51;;;;;;;1999.90;999.90;;;;;;;15.58;88.84;97241.59;10373091;28;20050;-66
2023/11/05 09:24:54;;;;;;;1999.90;999.90;;;;;;;16.11;84.33;97246.72;10374905;28;20054;-66
2023/11/05 09:29:56;;;;;;;1999.90;999.90;;;;;;;15.87;86.39;97264.09;10373802;28;20050;-66
2023/11/05 09:34:58;;;;;;;1999.90;999.90;;;;;;;15.83;86.31;97272.59;10379809;28;20481;-65
2023/11/05 09:40:01;;;;;;;1999.90;999.90;;;;;;;15.72;86.72;97282.75;10382203;28;20165;-65
2023/11/05 09:45:06;;;;;;;1999.90;999.90;;;;;;;15.89;85.78;97288.41;10381416;28;20063;-66
2023/11/05 09:50:09;;;;;;;1999.90;999.90;;;;;;;15.26;90.89;97296.00;10382476;28;20120;-65
2023/11/05 09:55:12;;;;;;;1999.90;999.90;;;;;;;16.07;87.06;97308.88;10381766;28;20049;-66
2023/11/05 10:00:15;;;;;;;1999.90;999.90;;;;;;;15.86;84.81;97314.41;10363999;28;20401;-66
2023/11/05 10:05:18;;;;;;;1999.90;999.90;;;;;;;15.97;86.58;97321.69;10381960;28;20108;-65
2023/11/05 10:10:20;;;;;;;1999.90;999.90;;;;;;;16.09;85.22;97324.50;10381203;28;20081;-65
2023/11/05 10:15:24;;;;;;;1999.90;999.90;;;;;;;16.04;87.76;97333.03;10379900;28;20128;-66
2023/11/05 10:20:29;;;;;;;1999.90;999.90;;;;;;;15.61;86.90;97336.13;10380166;28;20049;-66
2023/11/05 10:25:34;;;;;;;1999.90;999.90;;;;;;;16.56;83.09;97332.19;10381210;28;20084;-67
2023/11/05 10:30:36;;;;;;;1999.90;999.90;;;;;;;16.04;87.31;97353.28;10381073;28;20057;-66
2023/11/05 10:35:40;;;;;;;1999.90;999.90;;;;;;;16.32;85.49;97377.59;10380056;28;20408;-66
2023/11/05 10:40:42;;;;;;;1999.90;999.90;;;;;;;16.06;84.38;97382.94;10379440;28;20128;-66
2023/11/05 10:45:45;;;;;;;1999.90;999.90;;;;;;;15.16;88.24;97389.44;10378572;28;20084;-66
2023/11/05 10:50:48;;;;;;;1999.90;999.90;;;;;;;15.48;91.87;97405.47;10380167;28;20050;-66
2023/11/05 10:55:51;;;;;;;1999.90;999.90;;;;;;;15.31;93.61;97415.59;10379007;28;20053;-67
2023/11/05 11:00:57;;;;;;;1999.90;999.90;;;;;;;15.27;95.35;97432.03;10379431;28;20405;-66
2023/11/05 11:06:02;;;;;;;1999.90;999.90;;;;;;;15.28;92.35;97433.63;10378570;28;20054;-66
2023/11/05 11:11:06;;;;;;;1999.90;999.90;;;;;;;15.20;93.89;97458.38;10378399;28;20049;-66
2023/11/05 11:16:20;;;;;;;1999.90;999.90;;;;;;;15.10;96.86;97471.91;10378651;28;20559;-66
2023/11/05 11:21:23;;;;;;;1999.90;999.90;;;;;;;15.14;94.55;97480.22;10377244;28;20058;-66
2023/11/05 11:26:26;;;;;;;1999.90;999.90;;;;;;;15.00;94.42;97497.81;10378176;28;20405;-66
2023/11/05 11:31:29;;;;;;;1999.90;999.90;;;;;;;14.62;100.00;97511.41;10378680;28;20046;-65
2023/11/05 11:36:31;;;;;;;1999.90;999.90;;;;;;;14.91;96.94;97528.78;10377093;28;20141;-66
2023/11/05 11:41:37;;;;;;;1999.90;999.90;;;;;;;14.79;96.68;97546.97;10377405;28;20077;-66
2023/11/05 11:46:40;;;;;;;1999.90;999.90;;;;;;;15.29;95.55;97556.50;10377526;28;20060;-66
2023/11/05 11:51:44;;;;;;;1999.90;999.90;;;;;;;16.03;90.20;97568.06;10377222;28;20401;-66
2023/11/05 11:56:46;;;;;;;1999.90;999.90;;;;;;;15.89;92.72;97572.50;10375503;28;20104;-66
2023/11/05 12:01:49;;;;;;;1999.90;999.90;;;;;;;16.84;85.94;97585.47;10376740;28;20050;-66
2023/11/05 12:06:52;;;;;;;1999.90;999.90;;;;;;;16.35;87.00;97593.63;10375493;28;20456;-66
2023/11/05 12:11:54;;;;;;;1999.90;999.90;;;;;;;15.71;89.80;97609.97;10375321;28;20052;-66
2023/11/05 12:16:56;;;;;;;1999.90;999.90;;;;;;;15.46;89.68;97631.59;10375028;28;20481;-66
2023/11/05 12:21:59;;;;;;;1999.90;999.90;;;;;;;15.57;86.95;97640.75;10376612;28;20054;-66
2023/11/05 12:27:03;;;;;;;1999.90;999.90;;;;;;;15.22;87.55;97660.06;10374747;28;20116;-66
2023/11/05 12:32:07;;;;;;;1999.90;999.90;;;;;;;15.41;88.20;97678.81;10376335;28;20100;-65
2023/11/05 12:37:10;;;;;;;1999.90;999.90;;;;;;;15.22;88.74;97693.50;10375994;28;20057;-65
2023/11/05 12:42:12;;;;;;;1999.90;999.90;;;;;;;15.44;87.86;97701.34;10374847;28;20048;-66
2023/11/05 12:47:15;;;;;;;1999.90;999.90;;;;;;;14.98;88.28;97711.41;10374688;28;20064;-65
2023/11/05 12:52:17;;;;;;;1999.90;999.90;;;;;;;15.36;87.81;97726.81;10375742;28;20046;-66
2023/11/05 12:57:20;;;;;;;1999.90;999.90;;;;;;;14.61;90.06;97741.50;10376055;28;20046;-66
2023/11/05 13:02:24;;;;;;;1999.90;999.90;;;;;;;15.29;88.21;97744.44;10375230;28;20567;-66
2023/11/05 13:07:27;;;;;;;1999.90;999.90;;;;;;;15.03;88.12;97761.69;10374937;28;20059;-66
2023/11/05 13:12:30;;;;;;;1999.90;999.90;;;;;;;14.92;89.71;97782.47;10375162;28;20111;-65
2023/11/05 13:17:32;;;;;;;1999.90;999.90;;;;;;;15.21;87.85;97781.47;10375111;28;20052;-66
2023/11/05 13:22:37;;;;;;;1999.90;999.90;;;;;;;14.75;88.60;97795.88;10374942;28;20050;-66
2023/11/05 13:27:39;;;;;;;1999.90;999.90;;;;;;;15.27;87.63;97811.53;10373551;28;20096;-66
2023/11/05 13:32:43;;;;;;;1999.90;999.90;;;;;;;15.52;85.76;97823.28;10374777;28;20057;-65
2023/11/05 13:37:46;;;;;;;1999.90;999.90;;;;;;;14.64;89.06;97841.13;10374170;28;20571;-66
2023/11/05 13:42:48;;;;;;;1999.90;999.90;;;;;;;14.49;87.62;97857.78;10373420;28;20046;-66
2023/11/05 13:47:50;;;;;;;1999.90;999.90;;;;;;;14.66;88.70;97868.94;10373856;28;20477;-66
2023/11/05 13:52:54;;;;;;;1999.90;999.90;;;;;;;15.26;86.92;97878.41;10381737;22;20054;-64
2023/11/05 13:57:58;;;;;;;1999.90;999.90;;;;;;;14.96;86.78;97889.91;10373647;28;20378;-64
2023/11/05 14:03:00;;;;;;;1999.90;999.90;;;;;;;14.97;86.71;97911.78;10374221;28;20054;-64
2023/11/05 14:08:03;;;;;;;1999.90;999.90;;;;;;;14.73;87.93;97926.94;10374171;28;20129;-64
2023/11/05 14:13:05;;;;;;;1999.90;999.90;;;;;;;14.84;86.57;97950.16;10374002;28;20058;-64
2023/11/05 14:18:08;;;;;;;1999.90;999.90;;;;;;;14.94;86.18;97965.66;10373763;28;20417;-64
2023/11/05 14:23:12;;;;;;;1999.90;999.90;;;;;;;14.99;85.17;97978.28;10381383;28;20050;-64
2023/11/05 14:28:14;;;;;;;1999.90;999.90;;;;;;;15.05;84.71;97986.25;10381274;28;20078;-64
2023/11/05 14:33:17;;;;;;;1999.90;999.90;;;;;;;14.91;84.73;98016.09;10379920;28;20129;-64
2023/11/05 14:38:19;;;;;;;1999.90;999.90;;;;;;;14.83;86.47;98030.19;10380132;28;20129;-64
2023/11/05 14:43:21;;;;;;;1999.90;999.90;;;;;;;15.14;86.60;98042.31;10380492;28;20049;-64
2023/11/05 14:48:26;;;;;;;1999.90;999.90;;;;;;;14.63;88.22;98071.22;10379659;28;20050;-64
2023/11/05 14:53:28;;;;;;;1999.90;999.90;;;;;;;14.74;87.39;98067.31;10379627;28;20112;-64
2023/11/05 14:58:31;;;;;;;1999.90;999.90;;;;;;;14.86;86.79;98087.75;10379370;28;20400;-64
2023/11/05 15:03:34;;;;;;;1999.90;999.90;;;;;;;14.76;86.80;98108.28;10380302;28;20137;-64
2023/11/05 15:08:36;;;;;;;1999.90;999.90;;;;;;;14.60;87.25;98129.50;10380099;28;20050;-64
2023/11/05 15:13:39;;;;;;;1999.90;999.90;;;;;;;14.72;87.59;98128.06;10362215;28;20104;-64
2023/11/05 15:18:41;;;;;;;1999.90;999.90;;;;;;;14.59;86.42;98146.28;10377417;28;20125;-64
2023/11/05 15:23:44;;;;;;;1999.90;999.90;;;;;;;14.70;85.95;98159.03;10378404;28;20417;-64
2023/11/05 15:28:46;;;;;;;1999.90;999.90;;;;;;;14.55;88.80;98184.50;10376863;28;20409;-64
2023/11/05 15:33:53;;;;;;;1999.90;999.90;;;;;;;14.34;91.91;98193.88;10378484;28;20409;-64
2023/11/05 15:38:56;;;;;;;1999.90;999.90;;;;;;;14.75;90.05;98209.34;10378207;28;20056;-64
2023/11/05 15:43:58;;;;;;;1999.90;999.90;;;;;;;14.59;89.74;98220.84;10378744;28;20049;-64
2023/11/05 15:49:03;;;;;;;1999.90;999.90;;;;;;;14.64;90.75;98228.22;10376951;28;20052;-64
2023/11/05 15:54:06;;;;;;;1999.90;999.90;;;;;;;14.41;90.91;98239.53;10377227;28;20050;-64
2023/11/05 15:59:09;;;;;;;1999.90;999.90;;;;;;;14.40;91.64;98266.03;10377629;28;20045;-64
2023/11/05 16:04:11;;;;;;;1999.90;999.90;;;;;;;14.03;90.62;98268.38;10376885;28;20049;-64
2023/11/05 16:09:14;;;;;;;1999.90;999.90;;;;;;;14.16;90.31;98280.16;10376707;28;20488;-64
2023/11/05 16:14:16;;;;;;;1999.90;999.90;;;;;;;14.33;87.88;98294.88;10375931;28;20054;-64
2023/11/05 16:19:19;;;;;;;1999.90;999.90;;;;;;;14.57;86.90;98293.06;10375028;28;20495;-64
2023/11/05 16:24:25;;;;;;;1999.90;999.90;;;;;;;14.05;89.46;98323.44;10376757;28;20104;-64
2023/11/05 16:29:28;;;;;;;1999.90;999.90;;;;;;;14.74;85.55;98328.06;10376607;28;20046;-64
2023/11/05 16:34:30;;;;;;;1999.90;999.90;;;;;;;14.27;85.85;98348.19;10376391;28;20112;-64
2023/11/05 16:39:33;;;;;;;1999.90;999.90;;;;;;;14.38;85.78;98363.59;10375484;28;20513;-64
2023/11/05 16:44:35;;;;;;;1999.90;999.90;;;;;;;13.99;85.34;98369.69;10374862;28;20419;-64
2023/11/05 16:49:38;;;;;;;1999.90;999.90;;;;;;;14.34;83.45;98401.81;10375209;28;20397;-64
2023/11/05 16:54:40;;;;;;;1999.90;999.90;;;;;;;14.31;84.44;98408.22;10374349;28;20057;-64
2023/11/05 16:59:43;;;;;;;1999.90;999.90;;;;;;;14.55;81.76;98408.28;10375467;28;20081;-64
2023/11/05 17:04:46;;;;;;;1999.90;999.90;;;;;;;14.10;82.87;98429.84;10375289;28;20609;-64
2023/11/05 17:09:49;;;;;;;1999.90;999.90;;;;;;;14.06;81.29;98444.31;10374622;28;20405;-64
2023/11/05 17:14:51;;;;;;;1999.90;999.90;;;;;;;14.75;78.19;98459.56;10375132;28;20056;-64
2023/11/05 17:19:54;;;;;;;1999.90;999.90;;;;;;;14.52;77.64;98480.53;10374273;28;20511;-64
2023/11/05 17:24:56;;;;;;;1999.90;999.90;;;;;;;14.33;78.18;98487.00;10374890;28;20053;-64
2023/11/05 17:29:59;;;;;;;1999.90;999.90;;;;;;;14.02;79.60;98506.16;10373096;28;20545;-64
2023/11/05 17:35:02;;;;;;;1999.90;999.90;;;;;;;13.64;79.27;98537.38;10372887;28;20501;-66
2023/11/05 17:40:05;;;;;;;1999.90;999.90;;;;;;;13.84;80.30;98547.59;10374671;28;20389;-65
2023/11/05 17:45:08;;;;;;;1999.90;999.90;;;;;;;14.41;76.61;98559.88;10373428;28;20176;-65
2023/11/05 17:50:11;;;;;;;1999.90;999.90;;;;;;;14.00;78.54;98573.88;10372555;28;20532;-66
2023/11/05 17:55:16;;;;;;;1999.90;999.90;;;;;;;13.95;77.73;98581.44;10380096;28;20077;-66
2023/11/05 18:00:19;;;;;;;1999.90;999.90;;;;;;;14.07;78.04;98603.81;10396908;28;20720;-66
2023/11/05 18:05:21;;;;;;;1999.90;999.90;;;;;;;13.75;78.53;98621.22;10382712;28;20061;-65
2023/11/05 18:10:25;;;;;;;1999.90;999.90;;;;;;;13.88;79.42;98640.97;10381284;28;20045;-66
2023/11/05 18:15:36;;;;;;;1999.90;999.90;;;;;;;13.55;80.40;98644.34;10381763;28;20053;-66
2023/11/05 18:20:39;;;;;;;1999.90;999.90;;;;;;;14.19;78.79;98666.63;10381149;28;20060;-65
2023/11/05 18:25:41;;;;;;;1999.90;999.90;;;;;;;14.13;79.36;98658.41;10380214;28;20056;-66
2023/11/05 18:30:43;;;;;;;1999.90;999.90;;;;;;;14.01;79.91;98686.03;10381154;28;20056;-66
2023/11/05 18:35:46;;;;;;;1999.90;999.90;;;;;;;14.24;80.09;98701.19;10380973;28;20046;-65
2023/11/05 18:40:48;;;;;;;1999.90;999.90;;;;;;;13.60;84.23;98709.59;10380554;28;20108;-65
2023/11/05 18:45:50;;;;;;;1999.90;999.90;;;;;;;13.95;86.40;98715.59;10379395;28;20120;-66
2023/11/05 18:50:54;;;;;;;1999.90;999.90;;;;;;;13.48;88.08;98726.59;10380027;28;20045;-65
2023/11/05 18:55:56;;;;;;;1999.90;999.90;;;;;;;13.53;87.55;98746.22;10379626;28;20076;-66
2023/11/05 19:00:59;;;;;;;1999.90;999.90;;;;;;;13.37;89.04;98749.56;10378619;28;20477;-66
2023/11/05 19:06:01;;;;;;;1999.90;999.90;;;;;;;13.62;88.79;98767.28;10378579;28;20382;-65
2023/11/05 19:11:04;;;;;;;1999.90;999.90;;;;;;;13.47;89.55;98770.50;10379613;28;20078;-65
2023/11/05 19:16:06;;;;;;;1999.90;999.90;;;;;;;13.91;87.17;98772.97;10377622;28;20054;-65
2023/11/05 19:21:09;;;;;;;1999.90;999.90;;;;;;;13.46;89.46;98786.41;10378494;28;20497;-65
2023/11/05 19:26:11;;;;;;;1999.90;999.90;;;;;;;13.46;90.19;98796.94;10379096;28;20050;-65
2023/11/05 19:31:14;;;;;;;1999.90;999.90;;;;;;;13.67;88.41;98828.13;10378267;28;20413;-65
2023/11/05 19:36:17;;;;;;;1999.90;999.90;;;;;;;13.96;88.07;98832.19;10377988;28;20049;-65
2023/11/05 19:41:30;;;;;;;1999.90;999.90;;;;;;;14.01;88.10;98841.25;10377763;28;20052;-66
2023/11/05 19:46:33;;;;;;;1999.90;999.90;;;;;;;13.82;88.00;98847.59;10377076;28;20130;-65
2023/11/05 19:51:35;;;;;;;1999.90;999.90;;;;;;;13.70;88.31;98854.06;10377774;28;20094;-65
2023/11/05 19:56:37;;;;;;;1999.90;999.90;;;;;;;13.82;84.50;98863.38;10376086;28;20406;-66
2023/11/05 20:01:45;;;;;;;1999.90;999.90;;;;;;;13.61;88.48;98887.38;10377468;28;20049;-66
2023/11/05 20:06:57;;;;;;;1999.90;999.90;;;;;;;13.54;87.93;98887.19;10377464;28;20100;-65
2023/11/05 20:11:59;;;;;;;1999.90;999.90;;;;;;;13.67;84.84;98894.66;10377233;28;20057;-65
2023/11/05 20:17:02;;;;;;;1999.90;999.90;;;;;;;13.52;85.35;98917.25;10376162;28;20054;-65
2023/11/05 20:22:08;;;;;;;1999.90;999.90;;;;;;;13.43;86.42;98934.75;10375026;28;20412;-65
2023/11/05 20:27:10;;;;;;;1999.90;999.90;;;;;;;13.75;85.44;98938.59;10376713;28;20050;-65
2023/11/05 20:32:13;;;;;;;1999.90;999.90;;;;;;;13.62;82.29;98943.47;10375914;28;20565;-65
2023/11/05 20:37:15;;;;;;;1999.90;999.90;;;;;;;13.53;83.95;98958.31;10376767;28;20057;-65
2023/11/05 20:42:19;;;;;;;1999.90;999.90;;;;;;;13.49;83.41;98967.50;10375427;28;20046;-66
2023/11/05 20:47:21;;;;;;;1999.90;999.90;;;;;;;13.41;84.94;98984.00;10376007;28;20081;-66
2023/11/05 20:52:24;;;;;;;1999.90;999.90;;;;;;;13.05;86.59;98991.03;10375189;28;20058;-66
2023/11/05 20:57:27;;;;;;;1999.90;999.90;;;;;;;13.34;87.18;99001.38;10375036;28;20136;-65
2023/11/05 21:02:29;;;;;;;1999.90;999.90;;;;;;;13.37;85.73;99015.03;10374281;28;20060;-65
2023/11/05 21:07:31;;;;;;;1999.90;999.90;;;;;;;13.32;84.57;99021.72;10373541;28;20477;-65
2023/11/05 21:12:34;;;;;;;1999.90;999.90;;;;;;;13.47;86.65;99022.03;10374121;28;20049;-65
2023/11/05 21:17:36;;;;;;;1999.90;999.90;;;;;;;13.22;88.85;99031.44;10374672;28;20485;-65
2023/11/05 21:22:43;;;;;;;1999.90;999.90;;;;;;;13.50;88.04;99046.22;10374814;28;20073;-65
2023/11/05 21:27:46;;;;;;;1999.90;999.90;;;;;;;13.20;89.34;99052.63;10375201;28;20217;-65
2023/11/05 21:32:49;;;;;;;1999.90;999.90;;;;;;;13.40;88.76;99065.66;10356848;28;20071;-65
2023/11/05 21:37:51;;;;;;;1999.90;999.90;;;;;;;13.70;89.66;99067.09;10373732;28;20050;-65
2023/11/05 21:42:55;;;;;;;1999.90;999.90;;;;;;;13.40;91.76;99084.03;10373411;28;20046;-65
2023/11/05 21:47:58;;;;;;;1999.90;999.90;;;;;;;13.40;89.89;99076.16;10374545;28;20057;-65
2023/11/05 21:53:00;;;;;;;1999.90;999.90;;;;;;;14.38;84.11;99105.16;10374212;28;20057;-66
2023/11/05 21:58:03;;;;;;;1999.90;999.90;;;;;;;13.41;89.63;99093.59;10374367;28;20104;-65
2023/11/05 22:03:05;;;;;;;1999.90;999.90;;;;;;;13.60;86.04;99111.03;10373476;28;20052;-65
2023/11/05 22:08:08;;;;;;;1999.90;999.90;;;;;;;13.26;87.83;99107.19;10374234;28;20081;-65
2023/11/05 22:13:10;;;;;;;1999.90;999.90;;;;;;;13.42;87.67;99114.47;10374077;28;20057;-65